• Join FlightAware (Why Join?)
  • Login
  • US Flag 
12:03AM EST


 

Airport Tracker/Info


-or-


 

Live Flight TrackerFlight Track Log ✈ ASQ4976 ✈ 11-May-2013 ✈ KALB - KATL

Flight Track Log - Related Links

Times and Time Zones

All times are in EDT time to prevent confusion due to time zone crossing. See the ASQ4976 flight status page for this flight to view local times or setup timezone preferences in your user account.

Time Position Orientation Groundspeed Altitude Reporting Facility
EDT Latitude Longitude Course Direction KTS MPH feet Rate Location/Type
01:04PM 42.7278 -73.8081 213° Southwest 151 174 1,300  Level Boston Center
01:04PM 42.7089 -73.8244 213° Southwest 160 184 2,400 1,860 Climbing Boston Center
01:05PM 42.6978 -73.8611 248° West 200 230 3,600 1,560 Climbing Boston Center
01:06PM 42.7453 -73.9017 328° Northwest 206 237 5,100 2,220 Climbing Boston Center
01:07PM 42.8322 -73.9433 341° North 234 269 8,100 2,460 Climbing Boston Center
01:08PM 42.9047 -73.9819 339° North 262 302 10,600 2,220 Climbing Boston Center
01:09PM 42.9553 -74.0911 302° West 268 308 13,000 2,100 Climbing Boston Center
01:10PM 42.9519 -74.1789 267° West 266 306 14,900 1,920 Climbing Boston Center
01:11PM 42.8686 -74.1794 180° South 213 245 16,900 1,440 Climbing Boston Center
01:12PM 42.7875 -74.1575 169° South 322 371 17,800 1,200 Climbing Boston Center
01:13PM 42.6794 -74.1375 172° South 339 390 19,400 1,740 Climbing Boston Center
01:14PM 42.5819 -74.1178 172° South 361 415 21,300 1,680 Climbing Boston Center
01:15PM 42.4800 -74.0953 171° South 366 421 22,800 1,320 Climbing Boston Center
01:16PM 42.3742 -74.0700 170° South 377 434 24,000 1,080 Climbing Boston Center
01:17PM 42.2661 -74.0447 170° South 388 447 25,000 960 Climbing Boston Center
01:18PM 42.1556 -74.0419 179° South 399 459 26,000 900 Climbing Boston Center
01:19PM 42.0408 -74.0475 182° South 404 465 27,000 960 Climbing Boston Center
01:21PM 41.8258 -74.0583 182° South 424 488 28,800 1,200 Climbing New York Center
01:22PM 41.7092 -74.0664 183° South 424 488 30,200 1,320 Climbing New York Center
01:23PM 41.6097 -74.1169 201° Southwest 401 461 31,500 1,140 Climbing New York Center
01:24PM 41.5300 -74.2100 221° Southwest 379 436 32,500 960 Climbing New York Center
01:25PM 41.4464 -74.2997 219° Southwest 386 444 33,500 960 Climbing New York Center
01:26PM 41.3622 -74.3922 220° Southwest 393 452 34,500 960 Climbing New York Center
01:27PM 41.2786 -74.4678 214° Southwest 398 458 35,400 720 Climbing New York Center
01:28PM 41.1967 -74.5542 218° Southwest 398 458 36,000 240 Climbing New York Center
01:29PM 41.1106 -74.6483 219° Southwest 398 458 36,000  Level New York Center
01:30PM 41.0239 -74.7425 219° Southwest 403 464 36,000  Level New York Center
01:31PM 40.9333 -74.8333 217° Southwest 408 470 36,000  Level New York Center
01:32PM 40.8469 -74.9214 218° Southwest 408 470 36,000  Level New York Center
01:33PM 40.7647 -75.0069 218° Southwest 408 470 36,000  Level New York Center
01:34PM 40.6694 -75.1078 219° Southwest 403 464 36,000  Level New York Center
01:35PM 40.5850 -75.1925 217° Southwest 403 464 36,000  Level New York Center
01:36PM 40.4983 -75.2797 217° Southwest 403 464 36,000  Level New York Center
01:37PM 40.4136 -75.3697 219° Southwest 398 458 36,000  Level New York Center
01:38PM 40.3333 -75.4514 218° Southwest 386 444 36,000  Level New York Center
01:39PM 40.2508 -75.5356 218° Southwest 386 444 36,000  Level New York Center
01:40PM 40.1861 -75.6397 231° Southwest 371 427 36,000  Level New York Center
01:41PM 40.1314 -75.7500 237° Southwest 371 427 36,000  Level New York Center
01:42PM 40.0747 -75.8600 236° Southwest 371 427 36,000  Level New York Center
01:43PM 40.0197 -75.9725 237° Southwest 371 427 36,000  Level New York Center
01:44PM 39.9628 -76.0792 235° Southwest 371 427 36,000  Level New York Center
01:45PM 39.9075 -76.1942 238° Southwest 371 427 36,000  Level New York Center
01:46PM 39.8486 -76.2950 233° Southwest 382 440 36,000  Level New York Center
01:47PM 39.7972 -76.4100 240° Southwest 382 440 36,000  Level New York Center
01:48PM 39.7803 -76.5464 261° West 370 426 36,000  Level New York Center
01:49PM 39.7631 -76.6828 261° West 381 438 36,000  Level New York Center
01:49PM 39.7497 -76.7600 257° West 381 438 36,000  Level Washington Center
01:50PM 39.7108 -76.8836 248° West 370 426 36,000  Level Washington Center
01:52PM 39.6267 -76.9708 219° Southwest 363 418 36,000  Level Washington Center
01:52PM 39.5403 -77.0500 215° Southwest 373 429 36,000  Level Washington Center
01:53PM 39.4517 -77.1317 215° Southwest 383 441 36,000  Level Washington Center
01:54PM 39.3631 -77.2103 214° Southwest 394 453 36,000  Level Washington Center
01:56PM 39.2767 -77.2914 216° Southwest 394 453 36,000  Level Washington Center
01:57PM 39.1878 -77.3725 215° Southwest 394 453 36,000  Level Washington Center
01:58PM 39.1011 -77.4506 215° Southwest 389 448 36,000  Level Washington Center
01:58PM 39.0144 -77.5286 215° Southwest 389 448 36,000  Level Washington Center
02:00PM 38.9383 -77.5986 216° Southwest 389 448 36,000  Level Washington Center
02:01PM 38.8408 -77.6864 215° Southwest 389 448 36,000  Level Washington Center
02:01PM 38.7606 -77.7589 215° Southwest 389 448 36,000  Level Washington Center
02:03PM 38.6736 -77.8358 215° Southwest 399 459 36,000  Level Washington Center
02:04PM 38.6031 -77.9269 225° Southwest 384 442 36,000  Level Washington Center
02:04PM 38.5447 -78.0286 234° Southwest 367 422 36,000  Level Washington Center
02:05PM 38.4886 -78.1247 233° Southwest 362 417 36,000  Level Washington Center
02:06PM 38.4322 -78.2208 233° Southwest 356 410 36,000  Level Washington Center
02:08PM 38.3781 -78.3144 234° Southwest 350 403 36,000  Level Washington Center
02:09PM 38.3217 -78.4075 232° Southwest 350 403 36,000  Level Washington Center
02:09PM 38.2672 -78.5008 233° Southwest 340 391 36,000  Level Washington Center
02:10PM 38.2172 -78.5914 235° Southwest 328 377 36,000 180 Level Washington Center
02:11PM 38.1583 -78.6867 232° Southwest 328 377 36,400 540 Climbing Washington Center
02:13PM 38.1039 -78.7819 234° Southwest 328 377 37,100 660 Climbing Washington Center
02:13PM 38.0492 -78.8694 232° Southwest 333 383 37,800 420 Climbing Washington Center
02:14PM 38.0011 -78.9517 233° Southwest 333 383 38,000 60 Climbing Washington Center
02:15PM 37.9464 -79.0414 232° Southwest 338 389 38,000  Level Washington Center
02:16PM 37.8875 -79.1308 230° Southwest 338 389 38,000  Level Washington Center
02:17PM 37.8264 -79.2172 228° Southwest 338 389 38,000  Level Washington Center
02:19PM 37.7589 -79.3114 228° Southwest 333 383 38,000  Level Washington Center
02:19PM 37.6958 -79.3975 227° Southwest 334 384 38,000  Level Washington Center
02:20PM 37.6392 -79.4706 226° Southwest 339 390 38,000  Level Washington Center
02:22PM 37.5692 -79.5692 228° Southwest 334 384 38,000  Level Washington Center
02:22PM 37.5125 -79.6447 227° Southwest 334 384 38,000  Level Washington Center
02:24PM 37.4425 -79.7406 227° Southwest 334 384 38,000  Level Washington Center
02:24PM 37.3786 -79.8311 228° Southwest 341 392 38,000  Level Washington Center
02:25PM 37.3172 -79.9139 227° Southwest 341 392 38,000  Level Washington Center
02:28PM 37.1872 -80.0842 226° Southwest 320 368 38,000  Level Atlanta Center
02:29PM 37.1272 -80.1653 227° Southwest 325 374 38,000  Level Atlanta Center
02:30PM 37.0594 -80.2597 228° Southwest 332 382 38,000  Level Atlanta Center
02:31PM 36.9953 -80.3408 225° Southwest 332 382 38,000  Level Atlanta Center
02:32PM 36.9331 -80.4242 227° Southwest 332 382 38,000  Level Atlanta Center
02:33PM 36.8689 -80.5100 227° Southwest 327 376 38,000  Level Atlanta Center
02:34PM 36.8125 -80.5853 227° Southwest 327 376 38,000  Level Atlanta Center
02:35PM 36.7422 -80.6814 228° Southwest 327 376 38,000  Level Atlanta Center
02:36PM 36.6900 -80.7536 228° Southwest 321 369 38,000  Level Atlanta Center
02:37PM 36.6256 -80.8389 227° Southwest 328 377 38,000  Level Atlanta Center
02:38PM 36.5631 -80.9217 227° Southwest 328 377 38,000  Level Atlanta Center
02:39PM 36.4983 -81.0069 227° Southwest 328 377 38,000  Level Atlanta Center
02:40PM 36.4378 -81.0892 228° Southwest 328 377 38,000  Level Atlanta Center
02:41PM 36.3669 -81.1819 227° Southwest 328 377 38,000  Level Atlanta Center
02:42PM 36.3044 -81.2667 228° Southwest 328 377 38,000  Level Atlanta Center
02:43PM 36.2372 -81.3461 224° Southwest 328 377 38,000  Level Atlanta Center
02:44PM 36.1744 -81.4331 228° Southwest 328 377 38,000  Level Atlanta Center
02:45PM 36.1117 -81.5175 227° Southwest 334 384 38,000  Level Atlanta Center
02:46PM 36.0444 -81.6042 226° Southwest 334 384 38,000  Level Atlanta Center
02:47PM 35.9772 -81.6883 225° Southwest 334 384 38,000 -300 Level Atlanta Center
02:48PM 35.9122 -81.7747 227° Southwest 334 384 37,400 -840 Descending Atlanta Center
02:49PM 35.8408 -81.8664 226° Southwest 352 405 36,400 -1,080 Descending Atlanta Center
02:50PM 35.7714 -81.9553 226° Southwest 357 411 35,300 -720 Descending Atlanta Center
02:51PM 35.7019 -82.0442 226° Southwest 357 411 35,000 -180 Descending Atlanta Center
02:52PM 35.6325 -82.1328 226° Southwest 357 411 35,000  Level Atlanta Center
02:53PM 35.5628 -82.2186 225° Southwest 357 411 35,000 -300 Level Atlanta Center
02:54PM 35.4933 -82.3067 226° Southwest 357 411 34,400 -540 Descending Atlanta Center
02:55PM 35.4275 -82.3819 223° Southwest 357 411 34,000 -600 Descending Atlanta Center
02:56PM 35.3514 -82.4650 222° Southwest 367 422 33,200 -900 Descending Atlanta Center
02:57PM 35.2753 -82.5531 223° Southwest 372 428 32,200 -1,020 Descending Atlanta Center
02:58PM 35.2011 -82.6331 221° Southwest 372 428 31,200 -600 Descending Atlanta Center
02:59PM 35.1228 -82.7208 223° Southwest 372 428 31,000 -540 Descending Atlanta Center
03:00PM 35.0361 -82.8136 221° Southwest 377 434 30,200 -1,200 Descending Atlanta Center
03:01PM 34.9536 -82.9036 222° Southwest 391 450 28,600 -1,560 Descending Atlanta Center
03:02PM 34.8708 -82.9958 222° Southwest 397 457 27,100 -1,560 Descending Atlanta Center
03:03PM 34.7797 -83.0878 220° Southwest 413 475 25,500 -1,800 Descending Atlanta Center
03:04PM 34.6992 -83.1822 224° Southwest 419 482 23,600 -1,860 Descending Atlanta Center
03:05PM 34.6161 -83.2689 221° Southwest 407 468 21,800 -1,800 Descending Atlanta Center
03:06PM 34.5394 -83.3581 224° Southwest 395 455 20,000 -1,800 Descending Atlanta Center
03:07PM 34.4606 -83.4417 221° Southwest 385 443 18,200 -1,860 Descending Atlanta Center
03:08PM 34.3881 -83.5228 223° Southwest 373 429 16,300 -1,860 Descending Atlanta Center
03:09PM 34.3111 -83.6036 221° Southwest 367 422 14,500 -1,800 Descending Atlanta Center
03:10PM 34.2383 -83.6794 221° Southwest 357 411 12,700 -1,260 Descending Atlanta Center
03:11PM 34.1739 -83.7500 222° Southwest 357 411 12,000 -360 Descending Atlanta Center
03:12PM 34.1031 -83.8281 222° Southwest 351 404 12,000 -180 Level Atlanta Center
03:13PM 34.0342 -83.9008 221° Southwest 340 391 11,700 -780 Descending Atlanta Center
03:13PM 33.9833 -83.9333 208° Southwest 275 316 10,800 -1,440 Descending Atlanta TRACON
03:14PM 33.9167 -83.9333 180° South 283 326 9,500 -1,200 Descending Atlanta TRACON
03:15PM 33.8333 -83.9333 180° South 281 323 8,600 -900 Descending Atlanta TRACON
03:16PM 33.8025 -83.9314 177° South 279 321 8,200 -720 Descending Atlanta Center
03:17PM 33.7233 -83.9314 180° South 279 321 7,600 -600 Descending Atlanta Center
03:18PM 33.6564 -83.9514 194° South 279 321 7,000 -300 Descending Atlanta Center
03:19PM 33.6294 -84.0189 244° Southwest 226 260 7,000 -300 Level Atlanta Center
03:20PM 33.6314 -84.0886 272° West 212 244 6,400 -1,020 Descending Atlanta Center
03:21PM 33.6333 -84.1833 271° West 201 231 4,500 -1,200 Descending Atlanta TRACON
03:22PM 33.6333 -84.2500 270° West 201 231 3,500 -1,020 Descending Atlanta TRACON
03:23PM 33.6333 -84.3167 270° West 181 208 2,500 -900 Descending Atlanta TRACON
03:24PM 33.6333 -84.3667 270° West 141 162 1,800 -720 Descending Atlanta TRACON
03:26PM 33.6367 -84.4279 234° Southwest  Level Estimated
03:33PM 33.6367 -84.4279 64° Northeast  Level Estimated
03:34PM 33.6367 -84.4279 64° Northeast  Level Estimated